Time;durP1;ratioP1;P1;durP2;ratioP2;P2;SDS_P1;SDS_P2;PMS_P1;PMS_P2;Temp;Humidity;BMP_temperature;BMP_pressure;BME280_temperature;BME280_humidity;BME280_pressure;Samples;Min_cycle;Max_cycle;Signal;HPM_P1;HPM_P2
2024/01/23 00:01:33;;;;;;;26.80;4.68;;;6.70;85.00;;;;;;5012574;28;20510;-49
2024/01/23 00:04:02;;;;;;;15.85;4.10;;;6.60;85.10;;;;;;5007105;28;20470;-47
2024/01/23 00:06:32;;;;;;;17.90;3.60;;;6.60;85.10;;;;;;4994281;28;20063;-47
2024/01/23 00:08:58;;;;;;;20.42;4.75;;;6.60;84.90;;;;;;5013107;28;20045;-48
2024/01/23 00:11:25;;;;;;;13.57;4.00;;;6.60;84.80;;;;;;5031355;28;20018;-47
2024/01/23 00:13:52;;;;;;;19.02;4.57;;;6.60;84.70;;;;;;5028226;28;20021;-47
2024/01/23 00:16:19;;;;;;;14.77;4.45;;;6.50;84.90;;;;;;5018387;28;20327;-47
2024/01/23 00:18:45;;;;;;;22.00;4.40;;;6.50;85.00;;;;;;5028064;28;20128;-48
2024/01/23 00:21:12;;;;;;;22.60;4.40;;;6.50;85.10;;;;;;5024587;28;20498;-49
2024/01/23 00:23:38;;;;;;;15.75;4.07;;;6.40;85.10;;;;;;5005841;28;20053;-49
2024/01/23 00:26:08;;;;;;;25.00;4.47;;;6.40;85.40;;;;;;5012521;28;20018;-47
2024/01/23 00:28:36;;;;;;;23.10;4.15;;;6.40;85.60;;;;;;4997758;28;20030;-48
2024/01/23 00:31:02;;;;;;;12.75;3.25;;;6.30;85.50;;;;;;5010434;28;20029;-49
2024/01/23 00:33:27;;;;;;;22.95;5.25;;;6.20;85.70;;;;;;4981118;28;20045;-51
2024/01/23 00:35:53;;;;;;;14.75;4.13;;;6.20;85.80;;;;;;5021417;28;20022;-48
2024/01/23 00:38:20;;;;;;;12.60;3.58;;;6.20;85.90;;;;;;5019905;28;20026;-49
2024/01/23 00:40:46;;;;;;;26.00;4.80;;;6.10;86.00;;;;;;5007293;28;20049;-47
2024/01/23 00:43:14;;;;;;;15.07;3.00;;;6.10;86.20;;;;;;5025965;28;20514;-48
2024/01/23 00:45:41;;;;;;;21.05;4.28;;;6.00;86.40;;;;;;5011485;28;20026;-47
2024/01/23 00:48:11;;;;;;;15.07;3.75;;;6.10;86.40;;;;;;5023912;28;20455;-49
2024/01/23 00:50:37;;;;;;;15.98;4.38;;;6.00;86.70;;;;;;5027825;28;20028;-48
2024/01/23 00:53:03;;;;;;;14.25;4.32;;;6.00;86.60;;;;;;5010396;28;20661;-47
2024/01/23 00:55:30;;;;;;;16.08;4.00;;;6.00;86.60;;;;;;5015427;28;20030;-47
2024/01/23 00:57:56;;;;;;;21.77;3.90;;;5.90;86.90;;;;;;5031283;28;20108;-48
2024/01/23 01:00:22;;;;;;;23.15;5.13;;;5.90;87.20;;;;;;5012306;28;20026;-49
2024/01/23 01:02:49;;;;;;;14.35;4.10;;;5.90;87.40;;;;;;5024648;28;20033;-50
2024/01/23 01:05:16;;;;;;;20.48;3.92;;;5.90;87.40;;;;;;5026251;28;20163;-48
2024/01/23 01:07:43;;;;;;;25.27;4.22;;;6.00;87.50;;;;;;5023428;28;20025;-47
2024/01/23 01:10:10;;;;;;;21.58;4.63;;;6.00;87.30;;;;;;5030535;28;20108;-47
2024/01/23 01:12:37;;;;;;;17.60;3.75;;;6.00;87.20;;;;;;5030500;28;20095;-47
2024/01/23 01:15:07;;;;;;;18.95;4.63;;;5.90;87.40;;;;;;5016056;28;20029;-47
2024/01/23 01:17:34;;;;;;;26.27;5.25;;;6.00;87.30;;;;;;5004052;28;20128;-46
2024/01/23 01:20:01;;;;;;;21.63;5.28;;;5.90;87.20;;;;;;5030078;28;20026;-49
2024/01/23 01:22:29;;;;;;;15.15;4.20;;;6.00;87.10;;;;;;5009746;28;20125;-46
2024/01/23 01:24:56;;;;;;;26.35;4.30;;;6.10;86.70;;;;;;5009748;28;20037;-47
2024/01/23 01:27:25;;;;;;;20.20;4.40;;;6.20;86.50;;;;;;5024708;28;20020;-47
2024/01/23 01:29:52;;;;;;;17.73;3.78;;;6.20;86.30;;;;;;5030589;28;20310;-47
2024/01/23 01:32:19;;;;;;;23.40;4.55;;;6.20;86.10;;;;;;5007942;28;20379;-47
2024/01/23 01:34:45;;;;;;;22.13;4.93;;;6.20;86.10;;;;;;5013547;28;20408;-49
2024/01/23 01:37:11;;;;;;;24.08;4.35;;;6.20;85.60;;;;;;5017041;28;20025;-47
2024/01/23 01:39:37;;;;;;;24.02;4.35;;;6.20;85.50;;;;;;5017301;28;20160;-47
2024/01/23 01:42:03;;;;;;;22.73;5.90;;;6.10;85.50;;;;;;5000260;28;20105;-47
2024/01/23 01:44:32;;;;;;;17.70;3.90;;;6.20;85.50;;;;;;5011978;28;20160;-47
2024/01/23 01:46:59;;;;;;;29.30;6.60;;;6.10;85.60;;;;;;5014139;28;20140;-47
2024/01/23 01:49:29;;;;;;;27.20;4.63;;;6.00;85.60;;;;;;5007766;28;20022;-48
2024/01/23 01:51:58;;;;;;;;;;;6.00;85.90;;;;;;4995449;28;20352;-47
2024/01/23 01:54:29;;;;;;;18.67;4.57;;;6.00;85.90;;;;;;5031515;28;19944;-48
2024/01/23 01:56:56;;;;;;;15.70;4.57;;;6.00;86.00;;;;;;5007612;28;20109;-48
2024/01/23 01:59:22;;;;;;;29.85;5.20;;;6.00;86.00;;;;;;5014268;28;20395;-48
2024/01/23 02:01:50;;;;;;;26.08;6.30;;;6.00;85.90;;;;;;4982218;28;20035;-50
2024/01/23 02:04:17;;;;;;;25.05;5.97;;;5.90;85.90;;;;;;5001773;28;20057;-48
2024/01/23 02:06:43;;;;;;;15.40;4.68;;;5.90;85.90;;;;;;5014015;28;20026;-49
2024/01/23 02:09:10;;;;;;;28.58;5.38;;;5.90;86.00;;;;;;5014943;28;20469;-48
2024/01/23 02:11:36;;;;;;;22.05;5.15;;;5.90;86.00;;;;;;5026236;28;20124;-47
2024/01/23 02:14:02;;;;;;;19.98;4.57;;;5.90;85.80;;;;;;5034221;28;20038;-48
2024/01/23 02:16:29;;;;;;;24.38;4.22;;;5.90;85.90;;;;;;5026361;28;20120;-49
2024/01/23 02:18:56;;;;;;;19.73;5.28;;;5.90;85.80;;;;;;4987444;28;20041;-48
2024/01/23 02:21:23;;;;;;;22.92;4.65;;;5.90;85.80;;;;;;5007517;28;20108;-47
2024/01/23 02:23:52;;;;;;;29.48;5.47;;;5.90;85.70;;;;;;5001470;28;20340;-49
2024/01/23 02:26:19;;;;;;;24.52;5.75;;;5.90;85.90;;;;;;5001196;28;20476;-48
2024/01/23 02:28:46;;;;;;;22.38;5.60;;;5.90;85.80;;;;;;5020283;28;20022;-50
2024/01/23 02:31:13;;;;;;;22.75;4.97;;;5.90;85.80;;;;;;5025332;28;20057;-49
2024/01/23 02:33:40;;;;;;;34.30;5.43;;;5.90;85.80;;;;;;5013809;28;20026;-50
2024/01/23 02:36:06;;;;;;;22.02;4.68;;;6.00;85.80;;;;;;5033534;28;20033;-49
2024/01/23 02:38:32;;;;;;;18.40;6.13;;;6.10;85.70;;;;;;4998377;28;20048;-47
2024/01/23 02:41:00;;;;;;;22.42;4.65;;;6.10;85.50;;;;;;5026547;28;20033;-48
2024/01/23 02:43:27;;;;;;;19.50;4.05;;;6.20;85.30;;;;;;4999629;28;20064;-48
2024/01/23 02:45:54;;;;;;;25.83;5.22;;;6.20;85.20;;;;;;5009619;28;20098;-48
2024/01/23 02:48:20;;;;;;;25.67;5.15;;;6.30;85.20;;;;;;5008074;28;20018;-49
2024/01/23 02:50:47;;;;;;;18.10;4.72;;;6.20;85.20;;;;;;5010374;28;20453;-48
2024/01/23 02:53:13;;;;;;;22.58;5.30;;;6.20;85.30;;;;;;5029505;28;20104;-49
2024/01/23 02:55:41;;;;;;;22.63;4.93;;;6.30;85.40;;;;;;5013157;28;20546;-48
2024/01/23 02:58:09;;;;;;;18.90;5.15;;;6.20;85.40;;;;;;5008600;28;20025;-51
2024/01/23 03:00:39;;;;;;;16.38;4.80;;;6.20;85.40;;;;;;5013102;28;20586;-47
2024/01/23 03:03:13;;;;;;;27.60;5.93;;;6.30;85.40;;;;;;5025001;28;20073;-49
2024/01/23 03:05:39;;;;;;;24.27;5.40;;;6.30;85.40;;;;;;5001750;28;20022;-47
2024/01/23 03:08:07;;;;;;;20.33;4.88;;;6.30;85.30;;;;;;5014769;28;20038;-49
2024/01/23 03:10:35;;;;;;;19.58;4.90;;;6.30;85.30;;;;;;5010532;28;20371;-48
2024/01/23 03:13:02;;;;;;;24.40;4.72;;;6.30;85.30;;;;;;5025137;28;20050;-48
2024/01/23 03:15:31;;;;;;;28.73;5.30;;;6.30;85.30;;;;;;4997625;28;20101;-48
2024/01/23 03:17:59;;;;;;;22.08;5.32;;;6.40;85.30;;;;;;5012671;28;20029;-50
2024/01/23 03:20:29;;;;;;;20.45;5.18;;;6.40;85.30;;;;;;5016717;28;20018;-48
2024/01/23 03:22:56;;;;;;;26.67;5.10;;;6.40;85.10;;;;;;5019240;28;20025;-49
2024/01/23 03:25:23;;;;;;;27.25;4.97;;;6.40;85.30;;;;;;5027783;28;20092;-48
2024/01/23 03:27:50;;;;;;;21.90;5.43;;;6.40;85.30;;;;;;5019539;28;20057;-50
2024/01/23 03:30:35;;;;;;;25.52;5.35;;;6.40;85.30;;;;;;5014751;28;20021;-51
2024/01/23 03:33:02;;;;;;;22.85;5.28;;;6.40;85.30;;;;;;5016208;28;20068;-48
2024/01/23 03:35:28;;;;;;;24.13;5.07;;;6.40;85.20;;;;;;5021283;28;20771;-51
2024/01/23 03:37:55;;;;;;;22.63;5.85;;;6.40;85.20;;;;;;5021857;28;20053;-49
2024/01/23 03:40:22;;;;;;;21.55;4.95;;;6.50;85.10;;;;;;5000095;28;20064;-49
2024/01/23 03:42:49;;;;;;;29.42;5.57;;;6.40;85.20;;;;;;5010944;28;20113;-49
2024/01/23 03:45:16;;;;;;;22.13;5.85;;;6.50;85.20;;;;;;5012307;28;20080;-49
2024/01/23 03:47:43;;;;;;;25.45;5.68;;;6.50;85.00;;;;;;5012088;28;20045;-51
2024/01/23 03:50:10;;;;;;;27.85;5.50;;;6.50;85.00;;;;;;5011695;28;20037;-51
2024/01/23 03:52:39;;;;;;;23.95;5.22;;;6.40;84.90;;;;;;4984402;28;20037;-53
2024/01/23 03:55:05;;;;;;;19.73;5.70;;;6.40;85.10;;;;;;4994102;28;20081;-47
2024/01/23 03:57:33;;;;;;;27.00;7.90;;;6.40;85.30;;;;;;5011419;28;20038;-50
2024/01/23 04:00:00;;;;;;;32.22;8.40;;;6.40;85.00;;;;;;5007440;28;20049;-50
2024/01/23 04:02:27;;;;;;;21.77;5.30;;;6.40;85.10;;;;;;5026168;28;20083;-48
2024/01/23 04:04:54;;;;;;;25.45;6.50;;;6.40;85.10;;;;;;5031403;28;20037;-47
2024/01/23 04:07:23;;;;;;;33.58;8.02;;;6.40;84.90;;;;;;5022524;28;20455;-48
2024/01/23 04:09:50;;;;;;;36.75;8.40;;;6.50;85.10;;;;;;5013577;28;20026;-48
2024/01/23 04:12:15;;;;;;;26.95;5.40;;;6.40;85.30;;;;;;5011759;28;20153;-48
2024/01/23 04:14:42;;;;;;;28.42;5.97;;;6.40;85.40;;;;;;5011419;28;20782;-49
2024/01/23 04:17:09;;;;;;;22.88;5.75;;;6.40;85.50;;;;;;5009356;28;20091;-49
2024/01/23 04:19:37;;;;;;;25.50;6.78;;;6.40;85.60;;;;;;5030017;28;20026;-47
2024/01/23 04:22:04;;;;;;;27.60;6.15;;;6.40;85.70;;;;;;5031661;28;20048;-48
2024/01/23 04:24:31;;;;;;;22.48;5.50;;;6.40;85.80;;;;;;5028448;28;20057;-49
2024/01/23 04:26:58;;;;;;;34.88;7.18;;;6.30;86.00;;;;;;5027359;28;20082;-50
2024/01/23 04:29:24;;;;;;;32.25;6.18;;;6.30;86.10;;;;;;5012483;28;20094;-50
2024/01/23 04:31:51;;;;;;;34.05;6.97;;;6.40;86.10;;;;;;5013757;28;20040;-46
2024/01/23 04:34:18;;;;;;;28.95;5.40;;;6.40;86.10;;;;;;5031339;28;20430;-48
2024/01/23 04:36:44;;;;;;;34.30;6.10;;;6.30;86.10;;;;;;5015116;28;20030;-50
2024/01/23 04:39:10;;;;;;;26.90;7.25;;;6.40;86.40;;;;;;5015513;28;20339;-48
2024/01/23 04:41:39;;;;;;;29.50;7.60;;;6.30;86.40;;;;;;4978337;28;20031;-47
2024/01/23 04:44:08;;;;;;;28.38;5.85;;;6.30;86.60;;;;;;4991364;28;20431;-48
2024/01/23 04:46:35;;;;;;;35.55;7.80;;;6.30;86.70;;;;;;4993787;28;20592;-47
2024/01/23 04:49:03;;;;;;;31.17;6.90;;;6.40;86.80;;;;;;4993670;28;20435;-48
2024/01/23 04:51:30;;;;;;;31.93;7.17;;;6.40;86.70;;;;;;5002075;28;20038;-48
2024/01/23 04:53:57;;;;;;;32.03;9.57;;;6.40;86.70;;;;;;5009692;28;20041;-50
2024/01/23 04:56:24;;;;;;;31.48;7.22;;;6.50;86.50;;;;;;5017846;28;20025;-48
2024/01/23 04:58:50;;;;;;;33.58;9.40;;;6.50;86.40;;;;;;5030942;28;20025;-47
2024/01/23 05:01:19;;;;;;;38.20;7.22;;;6.60;86.50;;;;;;4996006;28;20044;-47
2024/01/23 05:03:46;;;;;;;36.30;6.80;;;6.60;86.60;;;;;;5007966;28;20112;-48
2024/01/23 05:06:12;;;;;;;38.85;9.10;;;6.60;86.50;;;;;;5006290;28;20052;-49
2024/01/23 05:08:39;;;;;;;38.40;7.78;;;6.60;86.40;;;;;;5012896;28;20049;-48
2024/01/23 05:11:06;;;;;;;33.70;6.90;;;6.60;86.50;;;;;;4978856;28;20335;-52
2024/01/23 05:13:33;;;;;;;32.00;9.77;;;6.60;86.50;;;;;;5009310;28;20124;-48
2024/01/23 05:15:59;;;;;;;37.42;9.32;;;6.70;86.40;;;;;;5013773;28;20038;-52
2024/01/23 05:18:26;;;;;;;33.70;7.65;;;6.70;86.40;;;;;;5027682;28;20030;-49
2024/01/23 05:20:52;;;;;;;38.35;7.50;;;6.70;86.30;;;;;;5016482;28;20097;-50
2024/01/23 05:23:24;;;;;;;37.15;9.15;;;6.60;86.50;;;;;;5015831;28;20109;-51
2024/01/23 05:25:50;;;;;;;32.10;8.05;;;6.60;86.60;;;;;;5015190;28;20758;-50
2024/01/23 05:28:17;;;;;;;35.42;7.97;;;6.60;86.80;;;;;;4997470;28;20029;-50
2024/01/23 05:30:44;;;;;;;52.72;10.40;;;6.60;86.70;;;;;;5018082;28;20040;-51
2024/01/23 05:33:11;;;;;;;35.50;9.07;;;6.60;86.80;;;;;;5015667;28;20014;-50
2024/01/23 05:35:36;;;;;;;35.50;8.18;;;6.60;86.90;;;;;;5020612;28;20766;-50
2024/01/23 05:38:03;;;;;;;33.60;7.93;;;6.60;86.90;;;;;;5015733;28;20124;-47
2024/01/23 05:40:30;;;;;;;35.47;9.32;;;6.60;87.10;;;;;;4990125;28;20097;-49
2024/01/23 05:42:55;;;;;;;38.75;8.32;;;6.60;87.10;;;;;;4994167;28;20026;-48
2024/01/23 05:45:24;;;;;;;30.33;7.43;;;6.60;87.20;;;;;;4996023;28;20384;-48
2024/01/23 05:47:50;;;;;;;38.80;8.00;;;6.50;87.30;;;;;;5013690;28;20018;-50
2024/01/23 05:50:19;;;;;;;44.90;8.02;;;6.50;87.40;;;;;;5013670;28;20026;-49
2024/01/23 05:52:47;;;;;;;41.08;9.60;;;6.50;87.60;;;;;;5013945;28;20453;-51
2024/01/23 05:55:12;;;;;;;42.72;7.70;;;6.40;87.80;;;;;;4996381;28;20026;-48
2024/01/23 05:57:39;;;;;;;34.92;7.20;;;6.40;88.00;;;;;;5011363;28;20048;-50
2024/01/23 06:00:07;;;;;;;38.90;9.45;;;6.40;88.00;;;;;;5013897;28;20392;-52
2024/01/23 06:02:34;;;;;;;33.13;7.18;;;6.40;88.10;;;;;;4996389;28;20379;-47
2024/01/23 06:05:01;;;;;;;43.80;9.18;;;6.40;88.20;;;;;;5013514;28;20045;-47
2024/01/23 06:07:28;;;;;;;43.20;9.10;;;6.40;88.00;;;;;;4999814;28;20628;-49
2024/01/23 06:09:54;;;;;;;43.17;7.75;;;6.40;88.20;;;;;;5013511;28;20040;-50
2024/01/23 06:12:21;;;;;;;35.97;8.38;;;6.40;88.30;;;;;;5028282;28;20080;-50
2024/01/23 06:14:49;;;;;;;38.25;8.00;;;6.40;88.40;;;;;;5011267;28;20662;-50
2024/01/23 06:17:15;;;;;;;36.53;10.02;;;6.40;88.40;;;;;;5013812;28;20347;-48
2024/01/23 06:19:42;;;;;;;41.60;7.72;;;6.50;88.40;;;;;;5016679;28;20032;-49
2024/01/23 06:22:09;;;;;;;45.42;9.10;;;6.40;88.20;;;;;;5019561;28;20045;-48
2024/01/23 06:24:36;;;;;;;36.95;11.20;;;6.40;88.30;;;;;;5013621;28;20100;-50
2024/01/23 06:27:03;;;;;;;32.05;8.10;;;6.40;88.40;;;;;;5013878;28;20022;-47
2024/01/23 06:29:30;;;;;;;39.90;8.50;;;6.40;88.50;;;;;;5013485;28;20108;-48
2024/01/23 06:31:58;;;;;;;51.83;10.30;;;6.40;88.50;;;;;;5012484;28;20033;-48
2024/01/23 06:34:26;;;;;;;47.22;9.30;;;6.40;88.50;;;;;;5013538;28;20029;-49
2024/01/23 06:36:53;;;;;;;38.10;8.70;;;6.40;88.50;;;;;;5011970;28;20026;-49
2024/01/23 06:39:22;;;;;;;44.47;9.50;;;6.40;88.60;;;;;;5016197;28;20049;-53
2024/01/23 06:41:49;;;;;;;38.28;9.00;;;6.40;88.70;;;;;;5012148;28;20061;-48
2024/01/23 06:44:16;;;;;;;39.90;8.18;;;6.40;88.70;;;;;;5010009;28;20072;-48
2024/01/23 06:46:43;;;;;;;53.40;12.32;;;6.40;88.70;;;;;;5016164;28;20029;-48
2024/01/23 06:49:10;;;;;;;30.40;8.48;;;6.40;88.70;;;;;;5011327;28;20117;-50
2024/01/23 06:51:36;;;;;;;48.00;10.40;;;6.40;88.80;;;;;;5010904;28;20347;-49
2024/01/23 06:54:08;;;;;;;46.33;12.77;;;6.50;88.70;;;;;;5011118;28;20030;-48
2024/01/23 06:56:35;;;;;;;47.05;10.25;;;6.40;88.70;;;;;;4993657;28;20068;-48
2024/01/23 06:59:03;;;;;;;40.78;8.63;;;6.40;88.80;;;;;;5015612;28;20026;-49
2024/01/23 07:01:29;;;;;;;45.03;9.38;;;6.50;88.80;;;;;;5013353;28;20057;-49
2024/01/23 07:03:55;;;;;;;37.03;9.13;;;6.50;88.70;;;;;;5014864;28;20459;-50
2024/01/23 07:06:22;;;;;;;40.17;8.18;;;6.50;88.70;;;;;;5011988;28;20048;-50
2024/01/23 07:08:49;;;;;;;36.60;8.68;;;6.50;88.70;;;;;;5019338;28;20533;-52
2024/01/23 07:11:14;;;;;;;44.33;9.60;;;6.50;88.70;;;;;;5020336;28;20418;-48
2024/01/23 07:13:41;;;;;;;46.13;10.88;;;6.40;88.60;;;;;;5015017;28;20108;-52
2024/01/23 07:16:08;;;;;;;37.47;8.18;;;6.40;88.60;;;;;;5023185;28;20029;-48
2024/01/23 07:18:35;;;;;;;39.47;10.05;;;6.30;88.60;;;;;;5022677;28;20045;-50
2024/01/23 07:21:02;;;;;;;37.92;8.40;;;6.30;88.70;;;;;;5013751;28;20037;-48
2024/01/23 07:23:29;;;;;;;49.47;10.68;;;6.20;88.70;;;;;;5018721;28;20438;-50
2024/01/23 07:25:58;;;;;;;40.45;9.23;;;6.20;88.70;;;;;;5018564;28;20032;-48
2024/01/23 07:28:25;;;;;;;36.47;8.73;;;6.10;88.90;;;;;;5006636;28;20473;-49
2024/01/23 07:30:51;;;;;;;38.88;9.13;;;6.00;89.00;;;;;;5009168;28;20342;-51
2024/01/23 07:33:18;;;;;;;38.30;8.65;;;5.90;89.20;;;;;;5005594;28;20022;-47
2024/01/23 07:35:44;;;;;;;52.20;9.57;;;5.90;89.40;;;;;;5017313;28;20058;-51
2024/01/23 07:38:11;;;;;;;37.05;9.63;;;5.90;89.50;;;;;;4999070;28;20030;-49
2024/01/23 07:40:44;;;;;;;61.55;15.93;;;5.80;89.90;;;;;;5021541;28;20018;-47
2024/01/23 07:43:11;;;;;;;40.45;9.90;;;5.80;89.90;;;;;;4995656;28;20034;-47
2024/01/23 07:45:41;;;;;;;44.35;9.60;;;5.80;90.00;;;;;;5019539;28;20048;-48
2024/01/23 07:48:09;;;;;;;44.08;8.77;;;5.80;90.00;;;;;;5004246;28;20045;-48
2024/01/23 07:50:36;;;;;;;47.40;10.85;;;5.70;90.10;;;;;;5013806;28;20092;-49
2024/01/23 07:53:03;;;;;;;46.05;11.93;;;5.70;90.20;;;;;;4995857;28;20125;-48
2024/01/23 07:55:30;;;;;;;50.33;11.10;;;5.60;90.20;;;;;;5020048;28;20512;-49
2024/01/23 07:57:57;;;;;;;41.88;8.40;;;5.60;90.60;;;;;;5000377;28;20036;-48
2024/01/23 08:00:24;;;;;;;42.42;9.57;;;5.60;90.40;;;;;;5019272;28;20086;-48
2024/01/23 08:02:50;;;;;;;50.47;10.10;;;5.60;90.60;;;;;;5015447;28;20075;-48
2024/01/23 08:05:19;;;;;;;42.92;10.05;;;5.60;90.70;;;;;;5016527;28;20014;-47
2024/01/23 08:07:45;;;;;;;;;;;5.60;90.90;;;;;;5011604;28;20360;-50
2024/01/23 08:10:13;;;;;;;41.10;9.57;;;5.70;91.00;;;;;;5008586;28;19947;-49
2024/01/23 08:12:40;;;;;;;37.65;11.57;;;5.70;90.90;;;;;;5013093;28;20110;-47
2024/01/23 08:15:07;;;;;;;46.15;11.02;;;5.70;90.90;;;;;;5011461;28;20033;-48
2024/01/23 08:17:36;;;;;;;55.42;11.73;;;5.70;90.90;;;;;;5010458;28;20351;-48
2024/01/23 08:20:08;;;;;;;47.65;11.45;;;5.70;90.80;;;;;;5015843;28;20099;-49
2024/01/23 08:22:35;;;;;;;38.55;10.05;;;5.80;90.90;;;;;;5011671;28;20037;-49
2024/01/23 08:25:02;;;;;;;45.40;10.80;;;5.80;90.80;;;;;;5011770;28;20033;-53
2024/01/23 08:27:29;;;;;;;44.13;11.57;;;5.80;90.80;;;;;;5021726;28;20017;-47
2024/01/23 08:29:58;;;;;;;34.75;10.18;;;5.80;90.70;;;;;;5017249;28;20018;-55
2024/01/23 08:32:25;;;;;;;51.92;9.70;;;5.90;90.80;;;;;;5007414;28;20032;-48
2024/01/23 08:34:52;;;;;;;37.58;9.07;;;5.90;90.80;;;;;;5014149;28;20608;-50
2024/01/23 08:37:19;;;;;;;48.60;10.05;;;5.90;90.80;;;;;;5019244;28;20125;-48
2024/01/23 08:39:46;;;;;;;42.67;9.43;;;5.90;90.80;;;;;;5023927;28;20287;-48
2024/01/23 08:42:13;;;;;;;34.83;9.05;;;5.90;90.80;;;;;;5004654;28;20033;-47
2024/01/23 08:44:43;;;;;;;45.25;9.32;;;5.90;90.70;;;;;;5023790;28;20021;-49
2024/01/23 08:47:11;;;;;;;43.60;8.77;;;6.00;90.70;;;;;;5013000;28;20032;-50
2024/01/23 08:49:37;;;;;;;50.70;12.50;;;6.10;90.50;;;;;;4980373;28;20397;-48
2024/01/23 08:52:03;;;;;;;55.83;14.45;;;6.00;90.50;;;;;;5004541;28;20021;-48
2024/01/23 08:54:30;;;;;;;53.03;11.80;;;6.10;90.60;;;;;;5017579;28;20030;-50
2024/01/23 08:57:00;;;;;;;45.67;9.40;;;6.10;90.50;;;;;;5018569;28;20362;-48
2024/01/23 08:59:30;;;;;;;58.00;13.25;;;6.10;90.40;;;;;;5014519;28;20040;-52
2024/01/23 09:01:56;;;;;;;46.53;9.98;;;6.10;90.40;;;;;;5024122;28;20034;-50
2024/01/23 09:04:23;;;;;;;50.35;11.45;;;6.20;90.50;;;;;;5024036;28;20030;-52
2024/01/23 09:06:50;;;;;;;44.65;9.73;;;6.30;90.50;;;;;;5020251;28;20065;-49
2024/01/23 09:09:15;;;;;;;40.67;9.77;;;6.40;90.40;;;;;;4997362;28;20030;-50
2024/01/23 09:11:45;;;;;;;45.03;13.80;;;6.40;90.30;;;;;;5011738;28;20049;-52
2024/01/23 09:14:12;;;;;;;42.70;10.60;;;6.40;90.30;;;;;;5017853;28;20310;-51
2024/01/23 09:16:39;;;;;;;37.38;8.07;;;6.50;90.10;;;;;;5017343;28;20052;-53
2024/01/23 09:19:05;;;;;;;43.70;10.15;;;6.50;89.90;;;;;;5023442;28;20092;-50
2024/01/23 09:21:32;;;;;;;41.45;11.90;;;6.70;89.70;;;;;;4997867;28;20036;-51
2024/01/23 09:24:00;;;;;;;39.92;9.07;;;6.70;89.40;;;;;;5014402;28;20022;-52
2024/01/23 09:26:26;;;;;;;55.25;13.30;;;6.80;89.20;;;;;;5007222;28;20014;-53
2024/01/23 09:28:53;;;;;;;42.67;11.13;;;6.80;89.10;;;;;;5022415;28;20080;-51
2024/01/23 09:31:22;;;;;;;39.28;9.85;;;6.90;89.00;;;;;;4996020;28;20481;-50
2024/01/23 09:33:48;;;;;;;44.13;12.13;;;6.90;88.80;;;;;;5029727;28;20245;-48
2024/01/23 09:36:15;;;;;;;41.97;9.25;;;7.00;88.60;;;;;;5001852;28;20038;-52
2024/01/23 09:38:44;;;;;;;44.47;9.90;;;7.00;88.30;;;;;;4996265;28;20414;-50
2024/01/23 09:41:12;;;;;;;43.42;9.10;;;7.10;88.30;;;;;;5020366;28;20033;-48
2024/01/23 09:43:46;;;;;;;41.88;10.35;;;7.10;88.20;;;;;;5031711;28;20109;-51
2024/01/23 09:46:15;;;;;;;43.30;9.35;;;7.10;88.20;;;;;;5012842;28;20081;-49
2024/01/23 09:48:43;;;;;;;47.05;9.80;;;7.10;88.40;;;;;;5024370;28;20034;-48
2024/01/23 09:51:14;;;;;;;62.90;11.98;;;7.10;88.50;;;;;;5004438;28;20033;-49
2024/01/23 09:53:43;;;;;;;37.47;9.68;;;7.20;88.50;;;;;;5014236;28;20359;-49
2024/01/23 09:56:11;;;;;;;44.05;10.23;;;7.30;88.10;;;;;;5023601;28;20073;-49
2024/01/23 09:58:38;;;;;;;47.83;10.27;;;7.30;87.90;;;;;;5012467;28;20026;-50
2024/01/23 10:01:05;;;;;;;39.97;10.85;;;7.40;88.00;;;;;;5022299;28;20455;-47
2024/01/23 10:03:34;;;;;;;44.75;11.00;;;7.40;87.80;;;;;;4996225;28;20530;-48
2024/01/23 10:06:00;;;;;;;39.85;9.23;;;7.40;87.60;;;;;;5013375;28;20036;-50
2024/01/23 10:08:27;;;;;;;50.05;12.07;;;7.40;87.50;;;;;;4994422;28;20129;-48
2024/01/23 10:11:01;;;;;;;40.25;10.05;;;7.40;87.60;;;;;;5020999;28;20026;-49
2024/01/23 10:13:31;;;;;;;45.28;11.90;;;7.40;87.50;;;;;;5027390;28;20042;-49
2024/01/23 10:16:00;;;;;;;40.35;9.77;;;7.50;87.30;;;;;;5009450;28;20101;-49
2024/01/23 10:18:27;;;;;;;44.80;9.70;;;7.60;87.40;;;;;;5024079;28;20029;-50
2024/01/23 10:22:36;;;;;;;42.72;8.50;;;7.60;87.30;;;;;;5118386;27;20120;-52
2024/01/23 10:25:19;;;;;;;37.20;9.05;;;7.80;87.10;;;;;;5105596;28;20113;-49
2024/01/23 10:27:56;;;;;;;43.22;10.35;;;7.70;86.60;;;;;;5105293;28;20024;-48
2024/01/23 10:30:23;;;;;;;43.22;9.30;;;7.70;86.80;;;;;;5108230;28;20020;-48
2024/01/23 10:32:49;;;;;;;44.60;12.27;;;7.70;87.00;;;;;;5107578;28;20373;-49
2024/01/23 10:35:18;;;;;;;37.80;9.15;;;7.70;87.00;;;;;;5108071;28;20027;-50
2024/01/23 10:37:46;;;;;;;44.45;9.38;;;7.70;86.80;;;;;;5108274;28;20123;-48
2024/01/23 10:40:13;;;;;;;40.58;9.98;;;7.70;86.80;;;;;;5107858;28;20035;-50
2024/01/23 10:42:40;;;;;;;30.00;9.77;;;7.70;86.70;;;;;;5104943;28;20019;-48
2024/01/23 10:45:15;;;;;;;45.85;9.98;;;7.70;86.80;;;;;;5107323;28;20020;-51
2024/01/23 10:47:41;;;;;;;35.78;8.95;;;7.80;86.60;;;;;;5107222;28;20020;-51
2024/01/23 10:50:08;;;;;;;35.17;9.90;;;7.80;86.70;;;;;;5107617;28;20052;-50
2024/01/23 10:52:39;;;;;;;50.40;11.63;;;7.80;86.30;;;;;;5107194;28;20032;-51
2024/01/23 10:55:07;;;;;;;62.63;21.50;;;7.80;86.40;;;;;;5106098;28;20136;-48
2024/01/23 10:57:40;;;;;;;36.65;11.45;;;7.80;86.30;;;;;;5107745;28;20139;-48
2024/01/23 11:00:10;;;;;;;42.40;9.60;;;7.80;86.30;;;;;;5087064;28;20477;-48
2024/01/23 11:02:51;;;;;;;36.45;8.77;;;7.90;86.20;;;;;;5107349;28;20314;-48
2024/01/23 11:05:23;;;;;;;42.97;12.27;;;7.70;86.20;;;;;;5083322;28;20035;-49
2024/01/23 11:08:01;;;;;;;36.22;8.15;;;7.70;86.30;;;;;;5107693;28;20317;-48
2024/01/23 11:10:47;;;;;;;39.25;6.90;;;7.90;86.40;;;;;;5106845;28;20016;-50
2024/01/23 11:13:19;;;;;;;52.60;11.68;;;7.90;86.20;;;;;;5107844;28;20034;-50
2024/01/23 11:15:46;;;;;;;41.67;10.23;;;7.90;85.90;;;;;;5107288;28;20059;-53
2024/01/23 11:18:32;;;;;;;43.33;7.90;;;7.90;86.00;;;;;;5105161;28;20028;-48
2024/01/23 11:21:11;;;;;;;32.65;10.10;;;7.90;86.00;;;;;;5104903;28;20054;-50
2024/01/23 11:23:59;;;;;;;34.35;10.02;;;8.00;86.30;;;;;;5106714;28;20036;-49
2024/01/23 11:26:26;;;;;;;41.45;9.45;;;8.00;85.70;;;;;;5106436;28;20153;-48
2024/01/23 11:29:04;;;;;;;40.20;9.65;;;8.00;85.60;;;;;;5104855;28;20620;-48
2024/01/23 11:31:37;;;;;;;29.58;9.25;;;8.10;85.40;;;;;;5104193;28;20039;-50
2024/01/23 11:34:29;;;;;;;28.38;7.93;;;8.20;85.30;;;;;;5075132;28;20031;-49
2024/01/23 11:36:56;;;;;;;35.55;8.80;;;8.30;85.40;;;;;;5084469;28;20048;-49
2024/01/23 11:39:25;;;;;;;36.85;10.20;;;8.30;84.50;;;;;;5093317;28;20677;-48
2024/01/23 11:41:52;;;;;;;34.08;8.98;;;8.20;84.30;;;;;;5093531;28;20407;-49
2024/01/23 11:44:37;;;;;;;41.10;8.50;;;8.20;84.20;;;;;;5092650;28;20042;-48
2024/01/23 11:47:04;;;;;;;32.83;8.38;;;8.20;84.30;;;;;;5091126;28;20070;-49
2024/01/23 11:49:30;;;;;;;28.38;7.43;;;8.30;84.50;;;;;;5093085;28;20025;-49
2024/01/23 11:52:00;;;;;;;33.28;6.97;;;8.30;84.50;;;;;;5091220;28;20032;-50
2024/01/23 11:54:27;;;;;;;37.75;8.70;;;8.30;83.90;;;;;;5081603;28;20366;-51
2024/01/23 11:56:53;;;;;;;42.13;8.60;;;8.30;84.40;;;;;;5089760;28;20032;-50
2024/01/23 11:59:19;;;;;;;29.58;6.93;;;8.40;84.50;;;;;;5088928;28;20241;-48
2024/01/23 12:01:47;;;;;;;42.78;8.50;;;8.40;83.60;;;;;;5091091;28;20125;-49
2024/01/23 12:04:16;;;;;;;46.05;8.43;;;8.30;83.80;;;;;;5088926;28;20016;-48
2024/01/23 12:06:42;;;;;;;29.70;7.65;;;8.30;83.90;;;;;;5091669;28;20043;-50
2024/01/23 12:09:10;;;;;;;31.10;8.05;;;8.40;84.20;;;;;;5086215;28;20024;-51
2024/01/23 12:11:36;;;;;;;32.00;7.30;;;8.40;83.80;;;;;;5091570;28;20188;-50
2024/01/23 12:14:02;;;;;;;32.00;7.80;;;8.30;83.80;;;;;;5089594;28;20103;-51
2024/01/23 12:16:29;;;;;;;29.20;7.85;;;8.30;83.90;;;;;;5090974;28;20035;-49
2024/01/23 12:19:00;;;;;;;27.35;7.85;;;8.30;83.70;;;;;;5091854;28;20028;-49
2024/01/23 12:21:29;;;;;;;38.42;8.55;;;8.30;83.50;;;;;;5091269;28;20048;-51
2024/01/23 12:23:56;;;;;;;33.92;7.82;;;8.20;83.30;;;;;;5092462;28;20024;-48
2024/01/23 12:26:23;;;;;;;28.63;7.10;;;8.30;83.30;;;;;;5091745;28;20020;-52
2024/01/23 12:28:49;;;;;;;32.58;7.28;;;8.20;83.20;;;;;;5092136;28;20020;-49
2024/01/23 12:31:17;;;;;;;28.10;6.18;;;8.20;83.30;;;;;;5062455;28;20038;-53
2024/01/23 12:33:44;;;;;;;22.25;6.40;;;8.10;83.40;;;;;;5091456;28;20109;-50
2024/01/23 12:36:16;;;;;;;33.70;7.55;;;8.10;83.80;;;;;;5091621;28;20388;-51
2024/01/23 12:38:44;;;;;;;28.02;6.88;;;8.00;83.80;;;;;;5074581;28;20098;-49
2024/01/23 12:41:11;;;;;;;33.13;6.78;;;8.00;83.90;;;;;;5092127;28;20120;-50
2024/01/23 12:43:40;;;;;;;27.65;7.00;;;8.00;83.80;;;;;;5090513;28;20028;-52
2024/01/23 12:46:12;;;;;;;33.35;7.97;;;8.00;83.70;;;;;;5074344;28;20476;-48
2024/01/23 12:48:41;;;;;;;27.35;7.70;;;8.00;84.00;;;;;;5089063;28;20042;-50
2024/01/23 12:51:09;;;;;;;35.05;7.63;;;8.00;84.00;;;;;;5090412;28;20035;-49